createdAt,value
2019-04-23T00:00:56.456Z,3.75
2019-04-23T00:03:25.860Z,3.40
2019-04-23T00:05:59.491Z,3.80
2019-04-23T00:08:39.690Z,4.17
2019-04-23T00:10:59.135Z,3.60
2019-04-23T00:13:30.506Z,4.30
2019-04-23T00:16:18.689Z,4.22
2019-04-23T00:18:49.757Z,4.00
2019-04-23T00:21:43.054Z,3.92
2019-04-23T00:24:34.807Z,3.98
2019-04-23T00:27:06.224Z,3.72
2019-04-23T00:29:28.050Z,3.80
2019-04-23T00:31:59.593Z,4.47
2019-04-23T00:34:37.524Z,4.35
2019-04-23T00:37:06.509Z,3.95
2019-04-23T00:39:33.891Z,4.25
2019-04-23T00:42:08.537Z,3.80
2019-04-23T00:44:40.110Z,4.42
2019-04-23T00:47:06.985Z,4.37
2019-04-23T00:49:40.198Z,4.33
2019-04-23T00:52:14.512Z,5.12
2019-04-23T00:54:41.120Z,4.30
2019-04-23T00:59:44.621Z,4.92
2019-04-23T01:02:13.195Z,4.62
2019-04-23T01:04:46.073Z,4.80
2019-04-23T01:07:11.339Z,4.65
2019-04-23T01:09:56.126Z,4.62
2019-04-23T01:12:30.110Z,5.03
2019-04-23T01:14:48.677Z,5.08
2019-04-23T01:17:26.185Z,4.62
2019-04-23T01:19:54.721Z,5.20
2019-04-23T01:22:08.682Z,5.12
2019-04-23T01:25:13.515Z,4.30
2019-04-23T01:28:09.395Z,4.87
2019-04-23T01:30:40.934Z,4.70
2019-04-23T01:33:16.058Z,5.00
2019-04-23T01:35:39.677Z,5.28
2019-04-23T01:38:11.918Z,4.92
2019-04-23T01:40:40.606Z,5.17
2019-04-23T01:43:16.474Z,5.25
2019-04-23T01:45:48.090Z,6.22
2019-04-23T01:48:12.879Z,6.08
2019-04-23T01:53:23.309Z,5.75
2019-04-23T01:55:54.440Z,5.83
2019-04-23T01:58:31.843Z,6.80
2019-04-23T02:00:53.228Z,5.83
2019-04-23T02:03:21.504Z,6.37
2019-04-23T02:05:55.596Z,5.95
2019-04-23T02:08:42.034Z,5.40
2019-04-23T02:10:58.740Z,6.12
2019-04-23T02:13:32.394Z,6.47
2019-04-23T02:16:12.903Z,6.55
2019-04-23T02:18:32.159Z,7.28
2019-04-23T02:28:49.538Z,6.97
2019-04-23T02:36:20.816Z,6.97
2019-04-23T02:38:54.542Z,8.73
2019-04-23T02:41:35.169Z,9.88
2019-04-23T02:43:59.179Z,9.85
2019-04-23T02:46:43.853Z,10.43
2019-04-23T02:48:56.622Z,9.48
2019-04-23T02:51:27.530Z,8.75
2019-04-23T02:54:04.590Z,9.63
2019-04-23T02:59:06.191Z,10.60
2019-04-23T03:09:23.874Z,10.70
2019-04-23T03:12:07.961Z,9.83
2019-04-23T03:14:09.582Z,9.90
2019-04-23T03:19:31.910Z,10.38
2019-04-23T03:22:15.295Z,10.28
2019-04-23T03:27:28.768Z,12.47
2019-04-23T03:34:36.749Z,12.60
2019-04-23T03:35:19.459Z,12.65
2019-04-23T03:42:47.048Z,11.83
2019-04-23T03:45:25.657Z,13.03
2019-04-23T03:47:48.141Z,12.50
2019-04-23T03:50:15.481Z,12.88
2019-04-23T03:52:39.216Z,12.58
2019-04-23T03:55:12.616Z,12.45
2019-04-23T03:57:38.312Z,12.98
2019-04-23T04:00:24.986Z,13.45
2019-04-23T04:02:48.498Z,13.85
2019-04-23T04:05:17.299Z,14.63
2019-04-23T04:07:47.009Z,14.28
2019-04-23T04:12:39.646Z,14.35
2019-04-23T04:15:35.637Z,14.10
2019-04-23T04:17:55.620Z,14.30
2019-04-23T04:20:29.031Z,13.58
2019-04-23T04:23:00.445Z,15.10
2019-04-23T04:28:08.467Z,14.45
2019-04-23T04:40:33.091Z,15.43
2019-04-23T04:43:11.290Z,13.43
2019-04-23T04:45:42.487Z,16.20
2019-04-23T04:50:25.961Z,14.78
2019-04-23T04:53:12.446Z,15.88
2019-04-23T04:55:37.569Z,14.55
2019-04-23T04:57:58.143Z,15.18
2019-04-23T05:00:42.550Z,15.20
2019-04-23T05:03:19.458Z,15.60
2019-04-23T05:08:11.300Z,15.48
2019-04-23T05:13:22.207Z,14.28
2019-04-23T05:15:39.144Z,14.25
2019-04-23T05:18:31.764Z,14.23
2019-04-23T05:21:01.819Z,14.05
2019-04-23T05:23:45.908Z,14.98
2019-04-23T05:26:20.963Z,15.00
2019-04-23T05:31:18.707Z,14.13
2019-04-23T05:33:57.206Z,15.03
2019-04-23T05:41:36.491Z,14.78
2019-04-23T05:43:57.361Z,14.33
2019-04-23T05:46:29.814Z,15.10
2019-04-23T05:51:33.501Z,13.83
2019-04-23T05:53:58.240Z,14.00
2019-04-23T05:56:29.165Z,14.53
2019-04-23T05:59:06.174Z,13.90
2019-04-23T06:07:06.058Z,13.08
2019-04-23T06:09:25.224Z,13.05
2019-04-23T06:11:55.495Z,13.00
2019-04-23T06:22:07.005Z,12.98
2019-04-23T06:24:24.942Z,13.70
2019-04-23T06:29:25.651Z,12.45
2019-04-23T06:31:48.868Z,13.48
2019-04-23T06:34:26.509Z,13.10
2019-04-23T06:36:50.785Z,12.70
2019-04-23T06:39:26.017Z,12.37
2019-04-23T06:41:55.173Z,12.28
2019-04-23T06:49:30.485Z,12.10
2019-04-23T06:54:36.304Z,12.73
2019-04-23T06:59:33.559Z,12.53
2019-04-23T07:02:10.016Z,12.80
2019-04-23T07:04:43.815Z,11.88
2019-04-23T07:09:35.239Z,12.30
2019-04-23T07:12:08.504Z,11.60
2019-04-23T07:14:44.134Z,12.00
2019-04-23T07:19:42.336Z,12.53
2019-04-23T07:24:41.983Z,10.70
2019-04-23T07:27:17.532Z,12.20
2019-04-23T07:29:48.287Z,10.43
2019-04-23T07:32:11.014Z,9.68
2019-04-23T07:34:49.804Z,9.98
2019-04-23T07:37:32.771Z,10.45
2019-04-23T07:40:09.897Z,9.90
2019-04-23T07:48:24.297Z,10.45
2019-04-23T07:50:52.038Z,8.55
2019-04-23T07:53:48.224Z,9.45
2019-04-23T07:56:03.790Z,10.38
2019-04-23T08:01:02.069Z,8.95
2019-04-23T08:03:31.517Z,9.63
2019-04-23T08:06:01.033Z,8.35
2019-04-23T08:08:30.221Z,8.15
2019-04-23T08:16:21.841Z,9.98
2019-04-23T08:18:45.560Z,9.15
2019-04-23T08:21:09.820Z,10.72
2019-04-23T08:23:56.899Z,10.48
2019-04-23T08:31:40.264Z,9.90
2019-04-23T08:34:18.625Z,11.57
2019-04-23T08:36:44.358Z,10.55
2019-04-23T08:39:11.546Z,10.08
2019-04-23T08:41:44.607Z,10.30
2019-04-23T08:44:21.517Z,10.43
2019-04-23T08:47:01.015Z,10.43
2019-04-23T08:49:31.273Z,10.10
2019-04-23T08:52:00.306Z,10.50
2019-04-23T08:54:41.606Z,10.28
2019-04-23T08:59:34.796Z,10.88
2019-04-23T09:04:30.974Z,10.68
2019-04-23T09:07:09.633Z,10.43
2019-04-23T09:09:34.683Z,11.35
2019-04-23T09:11:57.937Z,10.28
2019-04-23T09:14:32.159Z,11.80
2019-04-23T09:17:06.866Z,10.00
2019-04-23T09:22:08.663Z,10.75
2019-04-23T09:24:32.923Z,10.15
2019-04-23T09:27:09.694Z,9.90
2019-04-23T09:29:45.785Z,11.22
2019-04-23T09:35:08.577Z,10.90
2019-04-23T09:38:04.030Z,10.50
2019-04-23T09:43:33.279Z,10.60
2019-04-23T09:48:49.279Z,9.33
2019-04-23T09:53:47.171Z,10.88
2019-04-23T09:56:14.184Z,10.63
2019-04-23T09:58:43.257Z,11.10
2019-04-23T10:01:25.999Z,10.18
2019-04-23T10:03:40.587Z,10.05
2019-04-23T10:06:11.709Z,10.05
2019-04-23T10:08:40.516Z,10.70
2019-04-23T10:11:07.459Z,9.98
2019-04-23T10:13:36.702Z,9.95
2019-04-23T10:16:06.861Z,9.80
2019-04-23T10:18:37.374Z,10.55
2019-04-23T10:21:07.781Z,10.98
2019-04-23T10:23:37.156Z,10.20
2019-04-23T10:26:07.852Z,11.12
2019-04-23T10:28:53.877Z,10.28
2019-04-23T10:31:24.939Z,9.88
2019-04-23T10:33:55.821Z,9.88
2019-04-23T10:36:27.697Z,9.00
2019-04-23T10:39:03.500Z,9.75
2019-04-23T10:41:28.019Z,9.38
2019-04-23T10:44:04.812Z,10.38
2019-04-23T10:47:23.375Z,9.60
2019-04-23T10:55:00.802Z,8.88
2019-04-23T10:57:20.749Z,9.38
2019-04-23T11:00:08.910Z,9.50
2019-04-23T11:05:22.581Z,9.28
2019-04-23T11:07:30.910Z,8.83
2019-04-23T11:12:46.228Z,8.88
2019-04-23T11:17:59.175Z,8.45
2019-04-23T11:25:36.737Z,7.80
2019-04-23T11:28:02.813Z,8.10
2019-04-23T11:30:31.830Z,8.38
2019-04-23T11:33:10.094Z,8.35
2019-04-23T11:35:39.966Z,7.55
2019-04-23T11:40:34.287Z,9.03
2019-04-23T11:45:44.737Z,8.25
2019-04-23T11:51:10.434Z,8.05
2019-04-23T11:58:14.975Z,9.50
2019-04-23T12:03:19.426Z,8.98
2019-04-23T12:06:25.443Z,7.97
2019-04-23T12:09:09.939Z,9.80
2019-04-23T12:11:53.848Z,9.08
2019-04-23T12:14:42.066Z,8.10
2019-04-23T12:17:25.997Z,8.70
2019-04-23T12:22:17.868Z,8.73
2019-04-23T12:25:02.287Z,9.45
2019-04-23T12:27:30.646Z,8.98
2019-04-23T12:29:50.734Z,9.15
2019-04-23T12:32:41.815Z,8.38
2019-04-23T12:37:45.657Z,8.55
2019-04-23T12:40:23.541Z,8.95
2019-04-23T12:47:56.750Z,8.68
2019-04-23T12:50:42.454Z,9.10
2019-04-23T12:52:52.405Z,8.33
2019-04-23T12:55:27.748Z,7.67
2019-04-23T12:57:52.303Z,8.00
2019-04-23T13:00:27.179Z,8.73
2019-04-23T13:13:11.713Z,8.05
2019-04-23T13:15:29.366Z,7.72
2019-04-23T13:20:33.571Z,8.35
2019-04-23T13:23:13.534Z,7.95
2019-04-23T13:28:21.680Z,8.75
2019-04-23T13:30:56.536Z,8.63
2019-04-23T13:36:01.677Z,8.10
2019-04-23T13:38:34.945Z,8.78
2019-04-23T13:41:01.786Z,8.75
2019-04-23T13:46:06.906Z,8.70
2019-04-23T13:48:20.050Z,8.48
2019-04-23T13:54:17.081Z,8.78
2019-04-23T13:56:03.703Z,8.58
2019-04-23T13:58:34.450Z,8.00
2019-04-23T14:03:40.616Z,8.93
2019-04-23T14:31:36.587Z,8.33
2019-04-23T14:41:26.766Z,8.73
2019-04-23T14:49:22.089Z,9.18
2019-04-23T14:51:49.729Z,8.53
2019-04-23T14:54:34.392Z,9.25
2019-04-23T14:56:58.844Z,9.43
2019-04-23T14:59:13.530Z,8.23
2019-04-23T15:01:55.798Z,9.23
2019-04-23T15:04:28.963Z,8.88
2019-04-23T15:07:07.555Z,8.70
2019-04-23T15:12:11.909Z,8.93
2019-04-23T15:14:33.932Z,9.48
2019-04-23T15:24:40.887Z,9.45
2019-04-23T15:29:36.816Z,9.50
2019-04-23T15:34:45.471Z,9.63
2019-04-23T15:37:44.274Z,10.15
2019-04-23T15:39:56.624Z,9.33
2019-04-23T15:42:19.627Z,9.85
2019-04-23T15:44:49.043Z,9.83
2019-04-23T15:49:51.343Z,10.10
2019-04-23T15:52:21.097Z,10.75
2019-04-23T15:57:41.672Z,9.88
2019-04-23T15:59:55.897Z,10.68
2019-04-23T16:01:57.585Z,10.80
2019-04-23T16:04:27.609Z,10.65
2019-04-23T16:06:56.879Z,9.80
2019-04-23T16:10:04.313Z,11.53
2019-04-23T16:12:22.263Z,10.80
2019-04-23T16:17:32.661Z,10.68
2019-04-23T16:22:39.716Z,11.33
2019-04-23T16:25:13.350Z,10.60
2019-04-23T16:27:50.443Z,11.40
2019-04-23T16:38:36.367Z,11.03
2019-04-23T16:43:38.299Z,11.38
2019-04-23T16:48:35.359Z,10.80
2019-04-23T16:51:13.102Z,11.35
2019-04-23T16:56:04.183Z,11.35
2019-04-23T16:58:33.510Z,11.97
2019-04-23T17:01:03.826Z,11.57
2019-04-23T17:03:33.387Z,11.83
2019-04-23T17:06:08.647Z,12.40
2019-04-23T17:11:09.717Z,12.13
2019-04-23T17:13:32.995Z,12.28
2019-04-23T17:21:01.928Z,11.68
2019-04-23T17:26:26.098Z,12.13
2019-04-23T17:28:35.992Z,11.73
2019-04-23T17:33:43.912Z,12.23
2019-04-23T17:39:36.435Z,12.05
2019-04-23T17:42:31.000Z,12.25
2019-04-23T17:50:14.332Z,12.60
2019-04-23T17:52:42.034Z,12.18
2019-04-23T17:55:13.524Z,12.80
2019-04-23T17:57:43.678Z,12.90
2019-04-23T18:02:55.665Z,13.78
2019-04-23T18:05:29.157Z,12.40
2019-04-23T18:08:11.774Z,12.63
2019-04-23T18:12:53.220Z,13.38
2019-04-23T18:15:15.462Z,12.93
2019-04-23T18:20:37.540Z,12.88
2019-04-23T18:23:09.501Z,13.15
2019-04-23T18:25:51.592Z,12.25
2019-04-23T18:28:13.540Z,13.08
2019-04-23T18:31:46.928Z,12.80
2019-04-23T18:34:16.812Z,12.13
2019-04-23T18:36:29.505Z,13.80
2019-04-23T18:39:06.338Z,13.78
2019-04-23T18:41:33.507Z,12.78
2019-04-23T18:46:42.144Z,12.00
2019-04-23T18:48:59.732Z,13.43
2019-04-23T18:51:40.454Z,13.10
2019-04-23T18:54:08.498Z,14.05
2019-04-23T18:56:58.306Z,13.65
2019-04-23T18:59:16.230Z,14.25
2019-04-23T19:02:20.646Z,13.93
2019-04-23T19:05:03.441Z,14.45
2019-04-23T19:13:07.386Z,14.63
2019-04-23T19:15:37.920Z,14.78
2019-04-23T19:18:00.431Z,15.40
2019-04-23T19:23:21.064Z,15.13
2019-04-23T19:25:49.879Z,15.03
2019-04-23T19:28:30.742Z,15.70
2019-04-23T19:30:55.706Z,13.50
2019-04-23T19:33:38.280Z,14.50
2019-04-23T19:36:11.347Z,15.00
2019-04-23T19:38:36.429Z,12.13
2019-04-23T19:41:01.949Z,14.75
2019-04-23T19:48:44.111Z,13.18
2019-04-23T19:51:11.313Z,11.20
2019-04-23T19:54:01.782Z,13.65
2019-04-23T19:56:16.797Z,11.60
2019-04-23T19:58:44.968Z,15.50
2019-04-23T20:01:15.414Z,15.18
2019-04-23T20:06:27.374Z,13.90
2019-04-23T20:09:13.885Z,15.50
2019-04-23T20:11:13.695Z,16.25
2019-04-23T20:13:52.701Z,14.85
2019-04-23T20:16:25.279Z,16.30
2019-04-23T20:18:52.363Z,12.58
2019-04-23T20:21:19.519Z,11.68
2019-04-23T20:34:30.647Z,12.78
2019-04-23T20:37:02.874Z,12.60
2019-04-23T20:42:10.774Z,12.95
2019-04-23T20:44:39.434Z,12.82
2019-04-23T20:49:42.328Z,12.93
2019-04-23T20:54:42.111Z,14.47
2019-04-23T20:57:31.654Z,15.32
2019-04-23T21:05:11.765Z,12.53
2019-04-23T21:07:49.057Z,16.37
2019-04-23T21:10:22.439Z,16.85
2019-04-23T21:17:55.796Z,15.60
2019-04-23T21:20:17.774Z,15.05
2019-04-23T21:22:41.441Z,15.43
2019-04-23T21:25:08.180Z,15.38
2019-04-23T21:28:01.987Z,16.05
2019-04-23T21:30:39.789Z,16.10
2019-04-23T21:33:10.112Z,16.10
2019-04-23T21:36:07.183Z,14.83
2019-04-23T21:38:39.404Z,15.45
2019-04-23T21:43:57.215Z,16.00
2019-04-23T21:46:17.087Z,15.15
2019-04-23T21:51:41.919Z,14.87
2019-04-23T21:53:49.205Z,14.75
2019-04-23T21:56:15.550Z,14.25
2019-04-23T21:58:53.628Z,15.50
2019-04-23T22:01:36.640Z,13.75
2019-04-23T22:06:33.519Z,13.95
2019-04-23T22:08:57.704Z,13.38
2019-04-23T22:19:13.364Z,14.93
2019-04-23T22:21:33.061Z,14.50
2019-04-23T22:24:04.319Z,14.65
2019-04-23T22:26:35.259Z,14.68
2019-04-23T22:36:44.545Z,15.48
2019-04-23T22:39:03.144Z,15.72
2019-04-23T22:41:43.823Z,14.30
2019-04-23T22:44:09.494Z,15.30
2019-04-23T22:46:52.496Z,15.23
2019-04-23T22:49:20.022Z,14.07
2019-04-23T22:54:14.010Z,13.90
2019-04-23T22:56:54.975Z,15.10
2019-04-23T23:09:28.990Z,14.73
2019-04-23T23:14:27.044Z,15.13
2019-04-23T23:16:58.448Z,13.13
2019-04-23T23:19:55.473Z,14.78
2019-04-23T23:24:28.612Z,12.53
2019-04-23T23:26:57.157Z,14.75
2019-04-23T23:29:33.769Z,14.15
2019-04-23T23:32:07.924Z,14.13
2019-04-23T23:34:57.563Z,14.05
2019-04-23T23:37:09.103Z,15.60
2019-04-23T23:39:49.664Z,14.20
2019-04-23T23:42:09.692Z,13.98
2019-04-23T23:47:29.830Z,14.80
2019-04-23T23:49:43.847Z,15.20
2019-04-23T23:52:09.595Z,14.35
2019-04-23T23:54:43.819Z,14.05
